Time;durP1;ratioP1;P1;durP2;ratioP2;P2;SDS_P1;SDS_P2;PMS_P1;PMS_P2;Temp;Humidity;BMP_temperature;BMP_pressure;BME280_temperature;BME280_humidity;BME280_pressure;Samples;Min_cycle;Max_cycle;Signal;HPM_P1;HPM_P2
2022/12/11 00:00:33;;;;;;;19.90;18.00;;;;;;;-0.94;100.00;94846.41;5085544;28;20035;-65
2022/12/11 00:02:58;;;;;;;20.13;18.10;;;;;;;-1.03;100.00;94839.19;5084463;28;20020;-62
2022/12/11 00:05:23;;;;;;;20.08;17.10;;;;;;;-1.05;100.00;94843.59;5083623;28;20482;-66
2022/12/11 00:07:49;;;;;;;18.80;17.08;;;;;;;-1.04;100.00;94847.84;5087599;28;20065;-59
2022/12/11 00:10:14;;;;;;;21.20;18.77;;;;;;;-0.98;100.00;94839.75;5085037;28;20565;-60
2022/12/11 00:12:39;;;;;;;20.38;18.42;;;;;;;-0.94;100.00;94837.78;5086472;28;20370;-60
2022/12/11 00:15:05;;;;;;;18.95;17.05;;;;;;;-0.93;100.00;94821.38;5083167;28;20436;-60
2022/12/11 00:17:31;;;;;;;18.50;16.70;;;;;;;-0.89;100.00;94834.03;5085779;28;20012;-59
2022/12/11 00:19:56;;;;;;;21.90;18.35;;;;;;;-0.95;100.00;94836.13;5080127;28;20441;-59
2022/12/11 00:22:21;;;;;;;18.13;16.38;;;;;;;-0.81;100.00;94846.47;5077589;28;20398;-66
2022/12/11 00:24:46;;;;;;;20.00;18.00;;;;;;;-1.01;100.00;94839.91;5084718;28;20048;-64
2022/12/11 00:27:12;;;;;;;19.05;17.25;;;;;;;-1.05;100.00;94835.84;5086511;28;20078;-62
2022/12/11 00:33:05;;;;;;;19.55;17.58;;;;;;;-0.99;100.00;94837.25;5081159;28;20051;-61
2022/12/11 00:35:31;;;;;;;20.50;18.52;;;;;;;-1.05;100.00;94835.84;5079563;28;20024;-63
2022/12/11 00:37:56;;;;;;;19.23;17.33;;;;;;;-0.91;100.00;94838.44;5083622;28;20043;-61
2022/12/11 00:40:21;;;;;;;18.35;16.50;;;;;;;-0.88;99.49;94843.44;5084653;28;20020;-62
2022/12/11 00:42:47;;;;;;;18.67;16.85;;;;;;;-0.97;99.56;94856.91;5083798;28;20019;-56
2022/12/11 00:45:12;;;;;;;17.70;15.88;;;;;;;-1.01;100.00;94855.41;5085509;28;20185;-62
2022/12/11 00:47:37;;;;;;;17.42;15.73;;;;;;;-1.05;100.00;94856.53;5088405;28;20116;-63
2022/12/11 00:50:03;;;;;;;18.35;16.55;;;;;;;-1.03;99.79;94863.28;5081431;28;20021;-62
2022/12/11 00:52:28;;;;;;;17.20;15.50;;;;;;;-1.13;100.00;94856.16;5067143;28;20169;-62
2022/12/11 00:54:54;;;;;;;16.63;15.02;;;;;;;-0.99;98.55;94856.19;5083409;28;20027;-62
2022/12/11 00:57:19;;;;;;;17.10;15.50;;;;;;;-0.83;97.79;94857.81;5086594;28;20016;-62
2022/12/11 00:59:44;;;;;;;16.23;14.55;;;;;;;-0.94;98.12;94868.81;5082723;28;20043;-62
2022/12/11 01:02:10;;;;;;;16.75;15.27;;;;;;;-0.95;98.24;94868.00;5085401;28;20090;-66
2022/12/11 01:04:36;;;;;;;17.20;15.55;;;;;;;-0.92;98.03;94878.13;5081569;28;20019;-59
2022/12/11 01:07:01;;;;;;;17.67;15.98;;;;;;;-1.03;98.23;94883.09;5088107;28;20099;-59
2022/12/11 01:12:10;;;;;;;17.27;15.48;;;;;;;-0.91;97.58;94866.03;5084318;28;20042;-60
2022/12/11 01:14:35;;;;;;;18.38;16.58;;;;;;;-0.96;98.16;94866.34;5085567;28;20416;-59
2022/12/11 01:17:01;;;;;;;16.25;14.75;;;;;;;-0.90;98.87;94868.53;5079799;28;20012;-60
2022/12/11 01:19:26;;;;;;;16.40;14.80;;;;;;;-0.86;97.62;94864.03;5078779;28;20490;-59
2022/12/11 01:21:51;;;;;;;17.88;16.08;;;;;;;-0.88;96.98;94866.69;5080876;28;20058;-65
2022/12/11 01:24:17;;;;;;;17.45;15.75;;;;;;;-0.91;96.93;94877.22;5076336;28;20082;-61
2022/12/11 01:26:42;;;;;;;19.25;17.00;;;;;;;-1.02;98.11;94877.00;5088901;28;20073;-60
2022/12/11 01:29:07;;;;;;;17.95;16.23;;;;;;;-0.92;97.76;94878.13;5095375;28;20051;-60
2022/12/11 01:31:33;;;;;;;18.17;16.38;;;;;;;-1.05;97.53;94885.78;5078858;28;20089;-60
2022/12/11 01:33:58;;;;;;;18.70;16.85;;;;;;;-1.02;98.48;94885.59;5073079;28;20031;-61
2022/12/11 01:36:23;;;;;;;17.08;15.35;;;;;;;-0.80;95.90;94891.25;5076331;28;20425;-60
2022/12/11 01:38:49;;;;;;;17.60;15.90;;;;;;;-0.90;95.74;94896.13;5079673;28;20040;-60
2022/12/11 01:41:16;;;;;;;17.95;16.25;;;;;;;-1.07;97.50;94899.72;5083015;28;20042;-58
2022/12/11 01:44:14;;;;;;;18.05;16.33;;;;;;;-1.01;98.08;94897.59;5083871;28;20401;-64
2022/12/11 01:46:40;;;;;;;17.67;16.08;;;;;;;-0.95;96.04;94896.41;5033610;28;20082;-65
2022/12/11 01:49:12;;;;;;;18.67;16.77;;;;;;;-0.96;96.79;94893.91;5075488;28;20032;-64
2022/12/11 01:51:48;;;;;;;18.17;16.50;;;;;;;-1.09;97.81;94899.81;5081187;28;20391;-65
2022/12/11 01:54:17;;;;;;;18.58;16.77;;;;;;;-1.07;97.63;94891.97;5078953;28;20111;-65
2022/12/11 01:56:45;;;;;;;19.20;17.42;;;;;;;-1.12;98.39;94899.16;5082664;28;20485;-64
2022/12/11 01:59:14;;;;;;;18.83;17.02;;;;;;;-1.09;98.21;94901.56;5082682;28;20028;-59
2022/12/11 02:01:55;;;;;;;19.35;17.45;;;;;;;-1.10;98.44;94902.47;5083252;28;20020;-60
2022/12/11 02:04:22;;;;;;;18.70;16.88;;;;;;;-1.14;98.56;94906.19;5076798;28;20052;-60
2022/12/11 02:06:49;;;;;;;18.95;17.25;;;;;;;-1.13;98.75;94900.09;5080943;28;20474;-60
2022/12/11 02:09:24;;;;;;;18.40;16.25;;;;;;;-1.12;99.11;94904.31;5080615;28;20116;-61
2022/12/11 02:12:23;;;;;;;18.53;16.77;;;;;;;-1.14;99.82;94906.19;5081060;28;20059;-60
2022/12/11 02:14:57;;;;;;;17.88;15.98;;;;;;;-0.92;97.82;94898.81;5083094;28;20024;-60
2022/12/11 02:17:33;;;;;;;18.88;17.08;;;;;;;-1.07;98.95;94905.72;5081850;28;20719;-60
2022/12/11 02:20:11;;;;;;;;;;;;;;;-1.22;99.55;94904.84;5078787;28;20098;-60
2022/12/11 02:22:58;;;;;;;18.95;16.95;;;;;;;-1.23;99.84;94907.53;5075361;28;19919;-57
2022/12/11 02:25:36;;;;;;;16.70;15.18;;;;;;;-1.14;97.89;94916.50;5071884;28;20032;-57
2022/12/11 02:28:28;;;;;;;20.25;18.23;;;;;;;-1.14;98.90;94907.00;5071288;28;20108;-57
2022/12/11 02:31:03;;;;;;;18.23;16.27;;;;;;;-1.13;98.32;94915.59;5073281;28;20059;-58
2022/12/11 02:33:44;;;;;;;19.48;17.58;;;;;;;-1.27;99.33;94899.13;5072615;28;20020;-57
2022/12/11 02:36:12;;;;;;;18.30;16.50;;;;;;;-1.24;99.80;94911.03;5083832;28;20103;-58
2022/12/11 02:38:41;;;;;;;18.00;16.20;;;;;;;-1.23;100.00;94910.13;5080546;28;20051;-66
2022/12/11 02:44:32;;;;;;;19.45;17.50;;;;;;;-1.19;98.45;94915.03;5098466;28;20114;-66
2022/12/11 02:46:59;;;;;;;19.42;17.42;;;;;;;-1.27;99.31;94919.78;5072881;28;20025;-66
2022/12/11 02:49:26;;;;;;;20.08;18.00;;;;;;;-1.28;99.62;94922.47;5077542;28;20161;-66
2022/12/11 02:51:55;;;;;;;19.58;17.58;;;;;;;-1.26;99.69;94915.47;5093064;28;20032;-66
2022/12/11 02:54:30;;;;;;;19.20;17.40;;;;;;;-1.28;100.00;94915.53;5074920;28;20028;-66
2022/12/11 02:57:08;;;;;;;17.65;15.95;;;;;;;-1.27;98.94;94921.56;5072574;28;20028;-60
2022/12/11 02:59:43;;;;;;;21.00;18.90;;;;;;;-1.32;99.61;94927.81;5080689;28;20028;-64
2022/12/11 03:02:11;;;;;;;19.92;18.13;;;;;;;-1.20;98.42;94931.44;5092177;28;20032;-59
2022/12/11 03:04:37;;;;;;;17.58;15.88;;;;;;;-0.99;95.65;94928.53;5092849;28;20028;-59
2022/12/11 03:07:10;;;;;;;17.55;15.85;;;;;;;-1.16;95.07;94932.09;5092140;28;20370;-59
2022/12/11 03:09:40;;;;;;;16.25;14.65;;;;;;;-1.06;95.90;94938.41;5081946;28;20406;-59
2022/12/11 03:12:08;;;;;;;17.77;16.00;;;;;;;-1.08;94.65;94934.22;5089877;28;20028;-59
2022/12/11 03:14:35;;;;;;;16.48;14.98;;;;;;;-1.02;92.19;94924.38;5081149;28;20409;-60
2022/12/11 03:17:13;;;;;;;16.95;15.15;;;;;;;-0.93;91.89;94917.84;5089997;28;20089;-65
2022/12/11 03:19:52;;;;;;;16.27;14.82;;;;;;;-0.91;91.42;94910.81;5091238;28;20023;-59
2022/12/11 03:22:32;;;;;;;17.02;15.40;;;;;;;-1.12;92.05;94918.06;5084541;28;20036;-60
2022/12/11 03:25:16;;;;;;;15.35;13.95;;;;;;;-1.01;91.38;94917.44;5092144;28;20028;-59
2022/12/11 03:28:18;;;;;;;74.20;35.72;;;;;;;-1.23;92.87;94912.72;5079914;28;20172;-59
2022/12/11 03:30:46;;;;;;;17.55;15.93;;;;;;;-1.21;92.63;94903.09;5069520;28;20068;-59
2022/12/11 03:36:36;;;;;;;32.58;21.33;;;;;;;-1.23;93.30;94902.38;5087934;28;20135;-65
2022/12/11 03:39:08;;;;;;;26.63;19.73;;;;;;;-1.37;94.87;94901.41;5072087;28;20028;-56
2022/12/11 03:41:36;;;;;;;45.55;23.85;;;;;;;-1.42;96.26;94908.59;5077534;28;20032;-57
2022/12/11 03:44:02;;;;;;;18.20;16.33;;;;;;;-1.29;96.17;94898.38;5079207;28;20028;-56
2022/12/11 03:46:32;;;;;;;18.10;16.30;;;;;;;-1.33;95.75;94902.06;5090316;28;20020;-57
2022/12/11 03:49:02;;;;;;;53.67;28.90;;;;;;;-1.40;96.12;94895.63;5091095;28;20036;-56
2022/12/11 03:51:31;;;;;;;18.80;16.90;;;;;;;-1.47;96.31;94892.53;5084877;28;20025;-57
2022/12/11 03:53:58;;;;;;;51.17;27.50;;;;;;;-1.43;96.74;94895.78;5085308;28;20024;-66
2022/12/11 03:56:27;;;;;;;43.50;25.80;;;;;;;-1.52;97.33;94894.56;5078028;28;20062;-59
2022/12/11 03:58:53;;;;;;;27.67;20.00;;;;;;;-1.55;96.86;94903.31;5086146;28;20111;-59
2022/12/11 04:01:18;;;;;;;79.40;36.45;;;;;;;-1.63;98.07;94908.09;5087065;28;20099;-60
2022/12/11 04:03:43;;;;;;;56.38;29.13;;;;;;;-1.65;98.48;94908.16;5080271;28;20030;-59
2022/12/11 04:06:09;;;;;;;21.85;18.77;;;;;;;-1.60;98.05;94908.72;5090074;28;20019;-59
2022/12/11 04:08:34;;;;;;;91.25;43.90;;;;;;;-1.65;98.42;94900.41;5086742;28;20032;-59
2022/12/11 04:16:42;;;;;;;37.92;24.55;;;;;;;-1.70;98.58;94907.59;5083702;28;20405;-64
2022/12/11 04:25:13;;;;;;;31.27;23.25;;;;;;;-1.83;99.08;94902.28;5087085;28;20082;-57
2022/12/11 04:27:50;;;;;;;40.47;26.63;;;;;;;-1.85;99.41;94901.56;5087586;28;20044;-56
2022/12/11 04:30:19;;;;;;;23.13;20.42;;;;;;;-1.93;99.70;94894.22;5084546;28;20474;-55
2022/12/11 04:32:44;;;;;;;52.90;32.92;;;;;;;-1.97;100.00;94886.75;5086061;28;20154;-65
2022/12/11 04:35:11;;;;;;;57.67;32.92;;;;;;;-2.02;100.00;94882.66;5094221;28;20054;-64
2022/12/11 04:37:36;;;;;;;77.88;37.38;;;;;;;-2.04;100.00;94876.78;5077181;28;20106;-64
2022/12/11 04:40:03;;;;;;;48.58;30.15;;;;;;;-2.08;100.00;94875.28;5090489;28;20023;-65
2022/12/11 04:42:29;;;;;;;45.63;26.88;;;;;;;-2.08;100.00;94877.84;5090499;28;20559;-65
2022/12/11 04:44:54;;;;;;;59.88;34.13;;;;;;;-2.11;100.00;94872.84;5091058;28;20028;-64
2022/12/11 04:47:19;;;;;;;77.43;38.05;;;;;;;-2.10;100.00;94866.81;5090239;28;20540;-64
2022/12/11 04:49:45;;;;;;;55.28;30.05;;;;;;;-2.07;100.00;94871.78;5083668;28;20565;-64
2022/12/11 04:52:10;;;;;;;53.58;29.83;;;;;;;-2.11;100.00;94865.09;5083998;28;20058;-62
2022/12/11 04:54:36;;;;;;;38.00;26.13;;;;;;;-2.15;100.00;94871.34;5090551;28;20048;-63
2022/12/11 04:57:01;;;;;;;61.97;33.72;;;;;;;-2.17;100.00;94860.28;5090075;28;20058;-62
2022/12/11 04:59:26;;;;;;;24.55;20.48;;;;;;;-2.13;100.00;94856.63;5089024;28;20405;-62
2022/12/11 05:01:52;;;;;;;27.52;21.52;;;;;;;-2.06;100.00;94852.81;5089112;28;20103;-61
2022/12/11 05:04:17;;;;;;;24.48;21.05;;;;;;;-2.15;100.00;94845.56;5084099;28;20020;-62
2022/12/11 05:06:42;;;;;;;23.42;19.30;;;;;;;-2.06;100.00;94855.38;5070803;28;20064;-62
2022/12/11 05:09:12;;;;;;;21.23;19.20;;;;;;;-2.14;100.00;94854.97;5076018;28;20036;-61
2022/12/11 05:11:37;;;;;;;22.33;20.15;;;;;;;-2.16;100.00;94843.91;5090234;28;20460;-65
2022/12/11 05:14:03;;;;;;;22.77;20.48;;;;;;;-2.27;100.00;94849.66;5090171;28;20028;-65
2022/12/11 05:16:28;;;;;;;24.55;21.98;;;;;;;-2.28;100.00;94858.31;5089909;28;20027;-59
2022/12/11 05:18:54;;;;;;;31.35;24.05;;;;;;;-2.27;100.00;94851.41;5088479;28;20024;-60
2022/12/11 05:21:19;;;;;;;29.83;25.00;;;;;;;-2.28;100.00;94848.00;5087472;28;20114;-59
2022/12/11 05:23:45;;;;;;;27.92;22.52;;;;;;;-2.26;100.00;94850.50;5077348;28;20413;-59
2022/12/11 05:26:13;;;;;;;23.25;20.83;;;;;;;-2.19;100.00;94842.34;5072565;28;20100;-60
2022/12/11 05:28:40;;;;;;;53.28;34.92;;;;;;;-2.20;100.00;94850.16;5074613;28;20032;-59
2022/12/11 05:31:18;;;;;;;27.33;22.27;;;;;;;-2.22;100.00;94849.41;5072376;28;20099;-59
2022/12/11 05:33:45;;;;;;;24.52;21.88;;;;;;;-2.22;100.00;94855.38;5077025;28;20474;-56
2022/12/11 05:36:22;;;;;;;39.28;27.13;;;;;;;-2.22;100.00;94854.56;5095184;28;20097;-65
2022/12/11 05:38:49;;;;;;;30.40;24.75;;;;;;;-2.19;100.00;94862.13;5090084;28;20062;-64
2022/12/11 05:41:16;;;;;;;34.00;25.60;;;;;;;-2.17;100.00;94865.44;5076029;28;20016;-65
2022/12/11 05:43:42;;;;;;;25.77;21.42;;;;;;;-2.10;100.00;94871.13;5089476;28;20085;-64
2022/12/11 05:46:10;;;;;;;31.83;24.90;;;;;;;-2.17;100.00;94875.78;5089406;28;20020;-65
2022/12/11 05:48:36;;;;;;;38.38;27.42;;;;;;;-2.17;100.00;94868.03;5089409;28;20442;-64
2022/12/11 05:51:04;;;;;;;31.90;24.80;;;;;;;-2.12;100.00;94870.38;5088972;28;20019;-59
2022/12/11 05:53:30;;;;;;;44.33;30.55;;;;;;;-2.12;100.00;94866.03;5089708;28;20028;-64
2022/12/11 05:56:06;;;;;;;45.25;28.58;;;;;;;-2.09;99.53;94867.63;5084683;28;20032;-62
2022/12/11 05:58:33;;;;;;;48.47;32.72;;;;;;;-2.13;99.96;94866.94;5070218;28;20494;-62
2022/12/11 06:00:59;;;;;;;31.85;23.63;;;;;;;-2.11;100.00;94861.72;5070567;28;20043;-62
2022/12/11 06:03:24;;;;;;;30.48;22.80;;;;;;;-2.10;100.00;94871.97;5078799;28;20032;-61
2022/12/11 06:05:50;;;;;;;42.83;29.85;;;;;;;-2.09;99.68;94878.78;5075060;28;20099;-62
2022/12/11 06:08:15;;;;;;;42.45;28.45;;;;;;;-2.08;99.41;94877.84;5082516;28;20032;-61
2022/12/11 06:10:48;;;;;;;36.22;26.33;;;;;;;-2.12;99.37;94871.19;5089009;28;20103;-65
2022/12/11 06:13:14;;;;;;;34.42;24.88;;;;;;;-2.12;99.99;94878.91;5078608;28;20029;-65
2022/12/11 06:15:40;;;;;;;29.98;23.92;;;;;;;-2.07;99.94;94878.69;5074808;28;20031;-65
2022/12/11 06:18:05;;;;;;;24.88;22.23;;;;;;;-2.14;100.00;94869.63;5083537;28;20031;-65
2022/12/11 06:20:32;;;;;;;33.00;24.42;;;;;;;-2.12;100.00;94876.34;5081011;28;20020;-65
2022/12/11 06:22:58;;;;;;;25.52;22.55;;;;;;;-2.11;100.00;94875.44;5083918;28;20487;-65
2022/12/11 06:25:23;;;;;;;23.88;21.50;;;;;;;-2.05;100.00;94879.41;5080001;28;20059;-65
2022/12/11 06:27:49;;;;;;;38.25;27.60;;;;;;;-2.13;100.00;94879.03;5077917;28;20103;-65
2022/12/11 06:30:15;;;;;;;40.30;26.15;;;;;;;-2.16;100.00;94875.69;5080080;28;20278;-60
2022/12/11 06:32:40;;;;;;;25.08;21.58;;;;;;;-2.14;100.00;94885.91;5086756;28;20060;-65
2022/12/11 06:35:06;;;;;;;22.50;20.20;;;;;;;-2.19;100.00;94883.63;5091776;28;20040;-66
2022/12/11 06:37:34;;;;;;;25.95;23.13;;;;;;;-2.04;100.00;94887.09;5080207;28;20097;-66
2022/12/11 06:40:00;;;;;;;24.30;21.27;;;;;;;-2.07;100.00;94879.53;5092730;28;20027;-65
2022/12/11 06:42:25;;;;;;;26.00;21.92;;;;;;;-2.10;100.00;94860.78;5080661;28;20028;-65
2022/12/11 06:44:50;;;;;;;23.13;20.92;;;;;;;-2.04;100.00;94850.13;5092124;28;20095;-66
2022/12/11 06:47:16;;;;;;;26.33;21.63;;;;;;;-2.11;100.00;94843.66;5080591;28;20029;-66
2022/12/11 06:49:41;;;;;;;22.85;20.35;;;;;;;-2.12;100.00;94847.16;5092027;28;20024;-59
2022/12/11 06:52:06;;;;;;;33.47;25.02;;;;;;;-2.19;100.00;94829.44;5092642;28;20027;-65
2022/12/11 06:54:32;;;;;;;30.05;25.27;;;;;;;-2.22;100.00;94842.50;5092604;28;20047;-64
2022/12/11 06:56:57;;;;;;;25.50;22.95;;;;;;;-2.25;100.00;94847.00;5071279;28;20474;-64
2022/12/11 06:59:23;;;;;;;25.33;22.63;;;;;;;-2.26;100.00;94851.31;5078511;28;20024;-65
2022/12/11 07:01:48;;;;;;;23.25;20.85;;;;;;;-2.26;100.00;94858.25;5092979;28;20055;-64
2022/12/11 07:04:13;;;;;;;24.67;21.58;;;;;;;-2.25;100.00;94857.31;5073417;28;20051;-65
2022/12/11 07:06:39;;;;;;;25.08;22.52;;;;;;;-2.19;100.00;94856.97;5080241;28;20482;-64
2022/12/11 07:09:04;;;;;;;27.23;23.40;;;;;;;-2.23;100.00;94855.50;5070874;28;20473;-55
2022/12/11 07:11:29;;;;;;;27.40;23.15;;;;;;;-2.26;100.00;94855.66;5072624;28;20032;-61
2022/12/11 07:13:59;;;;;;;30.10;23.80;;;;;;;-2.16;100.00;94864.53;5054864;28;20183;-61
2022/12/11 07:16:24;;;;;;;24.77;21.83;;;;;;;-2.19;100.00;94868.13;5072934;28;20097;-62
2022/12/11 07:18:50;;;;;;;26.35;23.60;;;;;;;-2.19;100.00;94860.41;5073167;28;20095;-62
2022/12/11 07:21:17;;;;;;;27.55;24.67;;;;;;;-2.16;100.00;94856.81;5072515;28;20043;-62
2022/12/11 07:23:42;;;;;;;24.35;21.75;;;;;;;-2.24;100.00;94859.78;5074187;28;20032;-62
2022/12/11 07:26:10;;;;;;;26.52;23.77;;;;;;;-2.32;100.00;94852.50;5084819;28;20111;-61
2022/12/11 07:28:36;;;;;;;25.83;22.45;;;;;;;-2.34;100.00;94854.31;5074218;28;20111;-64
2022/12/11 07:31:20;;;;;;;24.70;21.98;;;;;;;-2.34;100.00;94859.47;5085424;28;20977;-56
2022/12/11 07:33:46;;;;;;;21.40;19.27;;;;;;;-2.37;100.00;94851.91;5074919;28;20032;-57
2022/12/11 07:36:13;;;;;;;22.70;20.38;;;;;;;-2.38;100.00;94855.41;5092289;28;20043;-57
2022/12/11 07:38:39;;;;;;;21.42;19.25;;;;;;;-2.33;100.00;94860.31;5092099;28;20467;-57
2022/12/11 07:41:07;;;;;;;31.52;27.13;;;;;;;-2.35;100.00;94855.22;5076423;28;20028;-57
2022/12/11 07:43:34;;;;;;;36.67;29.65;;;;;;;-2.40;100.00;94853.84;5072349;28;20506;-57
2022/12/11 07:46:15;;;;;;;34.08;30.50;;;;;;;-2.41;100.00;94865.88;5072523;28;20499;-63
2022/12/11 07:48:42;;;;;;;33.35;29.75;;;;;;;-2.38;100.00;94857.97;5077015;28;20031;-63
2022/12/11 07:51:10;;;;;;;37.17;33.35;;;;;;;-2.45;100.00;94851.50;5084159;28;20054;-64
2022/12/11 07:53:36;;;;;;;32.55;28.80;;;;;;;-2.38;100.00;94846.84;5077483;28;20060;-65
2022/12/11 07:56:01;;;;;;;31.52;28.30;;;;;;;-2.42;100.00;94843.59;5080283;28;20079;-64
2022/12/11 07:58:27;;;;;;;29.65;26.40;;;;;;;-2.21;100.00;94858.81;5089874;28;20519;-64
2022/12/11 08:00:52;;;;;;;31.13;26.70;;;;;;;-2.36;100.00;94871.63;5090114;28;20016;-65
2022/12/11 08:03:17;;;;;;;28.15;25.15;;;;;;;-2.32;100.00;94869.72;5091121;28;20085;-65
2022/12/11 08:05:50;;;;;;;30.08;26.85;;;;;;;-2.40;100.00;94854.66;5090701;28;20031;-59
2022/12/11 08:08:16;;;;;;;34.33;30.60;;;;;;;-2.40;100.00;94862.38;5080744;28;20024;-67
2022/12/11 08:10:42;;;;;;;34.15;30.60;;;;;;;-2.39;100.00;94869.22;5086953;28;20024;-64
2022/12/11 08:13:07;;;;;;;215.20;63.38;;;;;;;-2.39;100.00;94881.28;5076442;28;20044;-64
2022/12/11 08:15:33;;;;;;;269.25;74.45;;;;;;;-2.45;100.00;94887.59;5071758;28;20025;-64
2022/12/11 08:17:58;;;;;;;212.23;61.08;;;;;;;-2.43;100.00;94896.06;5076916;28;20051;-64
2022/12/11 08:20:24;;;;;;;435.35;96.13;;;;;;;-2.35;100.00;94908.56;5072471;28;20403;-64
2022/12/11 08:22:49;;;;;;;316.00;78.35;;;;;;;-2.23;100.00;94902.72;5070476;28;20103;-64
2022/12/11 08:25:14;;;;;;;70.78;37.70;;;;;;;-2.20;100.00;94902.59;5088100;28;20238;-61
2022/12/11 08:27:40;;;;;;;46.08;37.15;;;;;;;-2.16;100.00;94908.38;5084827;28;20032;-64
2022/12/11 08:30:06;;;;;;;55.20;45.88;;;;;;;-2.13;100.00;94910.78;5069785;28;20024;-60
2022/12/11 08:32:31;;;;;;;39.42;35.20;;;;;;;-2.09;100.00;94914.88;5082102;28;20110;-60
2022/12/11 08:34:56;;;;;;;48.60;43.45;;;;;;;-2.06;100.00;94916.44;5072079;28;20024;-60
2022/12/11 08:37:22;;;;;;;39.55;35.58;;;;;;;-2.06;100.00;94912.13;5067685;28;20035;-61
2022/12/11 08:39:47;;;;;;;37.45;33.53;;;;;;;-1.92;100.00;94906.22;5075826;28;20028;-60
2022/12/11 08:42:12;;;;;;;38.42;34.38;;;;;;;-1.94;100.00;94897.72;5097222;28;20052;-60
2022/12/11 08:44:38;;;;;;;35.88;32.15;;;;;;;-1.91;100.00;94897.56;5083688;28;20020;-65
2022/12/11 08:47:03;;;;;;;28.90;25.77;;;;;;;-1.74;100.00;94900.94;5082657;28;20027;-60
2022/12/11 08:49:29;;;;;;;28.60;25.55;;;;;;;-1.71;100.00;94902.50;5062002;28;20050;-59
2022/12/11 08:51:54;;;;;;;31.23;28.10;;;;;;;-1.66;100.00;94905.66;5079749;28;20013;-59
2022/12/11 08:54:19;;;;;;;31.42;28.10;;;;;;;-1.53;100.00;94901.47;5070405;28;20382;-60
2022/12/11 08:56:45;;;;;;;27.70;24.73;;;;;;;-1.34;100.00;94897.81;5070495;28;20055;-60
2022/12/11 08:59:10;;;;;;;31.85;27.35;;;;;;;-1.28;100.00;94906.97;5073267;28;20508;-60
2022/12/11 09:01:35;;;;;;;29.67;26.48;;;;;;;-1.13;100.00;94908.66;5074574;28;20020;-60
2022/12/11 09:04:01;;;;;;;28.38;25.45;;;;;;;-1.05;100.00;94906.47;5074777;28;20125;-67
2022/12/11 09:06:28;;;;;;;28.15;25.25;;;;;;;-1.02;100.00;94905.44;5077136;28;20035;-63
2022/12/11 09:08:55;;;;;;;29.67;26.65;;;;;;;-1.01;100.00;94905.34;5081856;28;20031;-63
2022/12/11 09:11:26;;;;;;;29.85;26.65;;;;;;;-0.92;100.00;94913.47;5071783;28;20039;-63
2022/12/11 09:13:52;;;;;;;29.08;26.23;;;;;;;-0.93;99.60;94910.06;5069383;28;20034;-64
2022/12/11 09:16:20;;;;;;;29.30;25.98;;;;;;;-0.82;100.00;94921.50;5070083;28;20028;-63
2022/12/11 09:18:47;;;;;;;29.23;26.05;;;;;;;-0.92;100.00;94918.66;5071718;28;20032;-63
2022/12/11 09:21:15;;;;;;;29.50;26.50;;;;;;;-0.77;100.00;94914.34;5071083;28;20111;-64
2022/12/11 09:23:42;;;;;;;29.08;26.10;;;;;;;-0.88;100.00;94918.38;5071139;28;20494;-63
2022/12/11 09:26:11;;;;;;;29.23;26.23;;;;;;;-0.87;99.91;94919.22;5070105;28;20028;-65
2022/12/11 09:28:37;;;;;;;25.40;22.67;;;;;;;-0.85;99.28;94911.38;5071922;28;20079;-67
2022/12/11 09:31:12;;;;;;;28.27;25.38;;;;;;;-0.94;99.73;94913.59;5070715;28;20021;-67
2022/12/11 09:33:38;;;;;;;28.03;25.20;;;;;;;-1.01;99.87;94920.00;5071858;28;20025;-67
2022/12/11 09:36:04;;;;;;;28.10;25.30;;;;;;;-1.05;100.00;94909.06;5072135;28;20494;-68
2022/12/11 09:38:31;;;;;;;28.08;25.05;;;;;;;-1.11;100.00;94904.22;5069189;28;20040;-68
2022/12/11 09:40:57;;;;;;;29.27;26.13;;;;;;;-1.16;100.00;94899.34;5070640;28;20021;-68
2022/12/11 09:43:48;;;;;;;30.70;27.50;;;;;;;-1.25;100.00;94902.44;5071179;28;20017;-63
2022/12/11 09:46:15;;;;;;;29.48;26.33;;;;;;;-1.12;100.00;94891.41;5071647;28;20024;-63
2022/12/11 09:48:45;;;;;;;29.15;26.15;;;;;;;-1.09;100.00;94888.66;5071348;28;20063;-63
2022/12/11 09:51:23;;;;;;;28.17;25.23;;;;;;;-1.26;100.00;94882.72;5079354;28;20020;-63
2022/12/11 09:53:50;;;;;;;42.08;30.27;;;;;;;-1.31;100.00;94882.16;5072914;28;20456;-63
2022/12/11 09:56:29;;;;;;;30.83;26.15;;;;;;;-1.09;99.56;94880.88;5074306;28;20024;-64
2022/12/11 09:59:22;;;;;;;27.25;23.92;;;;;;;-1.02;99.03;94875.28;5080451;28;20514;-64
2022/12/11 10:02:11;;;;;;;31.20;25.65;;;;;;;-1.03;98.42;94878.78;5090594;28;20409;-61
2022/12/11 10:04:57;;;;;;;25.48;22.90;;;;;;;-0.93;97.23;94873.06;5074459;28;20020;-64
2022/12/11 10:07:38;;;;;;;62.47;42.90;;;;;;;-0.96;96.23;94878.41;5078295;28;20032;-64
2022/12/11 10:10:09;;;;;;;68.35;32.45;;;;;;;-0.98;95.93;94870.75;5076090;28;20039;-64
2022/12/11 10:13:03;;;;;;;107.05;56.75;;;;;;;-0.98;95.35;94864.75;5091303;28;20054;-65
2022/12/11 10:15:31;;;;;;;25.60;22.77;;;;;;;-0.90;96.01;94862.53;5076874;28;20039;-65
2022/12/11 10:17:58;;;;;;;35.08;26.40;;;;;;;-1.02;94.51;94864.09;5088812;28;20024;-64
2022/12/11 10:20:30;;;;;;;188.02;84.40;;;;;;;-1.08;94.77;94851.56;5077186;28;20061;-66
2022/12/11 10:22:57;;;;;;;62.92;37.50;;;;;;;-0.87;95.17;94847.69;5082533;28;20016;-55
2022/12/11 10:25:35;;;;;;;37.95;28.67;;;;;;;-0.48;94.73;94844.50;5083805;28;20028;-64
2022/12/11 10:28:13;;;;;;;22.60;20.30;;;;;;;-0.12;93.51;94837.91;5080756;28;20020;-66
2022/12/11 10:30:46;;;;;;;22.92;20.60;;;;;;;0.04;91.73;94831.78;5079245;28;20032;-65
2022/12/11 10:33:19;;;;;;;105.13;56.65;;;;;;;0.20;90.83;94835.03;5086049;28;20047;-64
2022/12/11 10:35:47;;;;;;;168.45;82.30;;;;;;;0.38;88.91;94825.22;5079902;28;20047;-65
2022/12/11 10:38:19;;;;;;;90.10;48.05;;;;;;;0.47;88.59;94828.97;5084263;28;20138;-66
2022/12/11 10:41:10;;;;;;;94.88;54.70;;;;;;;0.65;84.58;94831.28;5103792;28;20020;-69
2022/12/11 10:43:35;;;;;;;64.93;44.50;;;;;;;0.70;84.29;94834.38;5101042;28;20020;-60
2022/12/11 10:46:02;;;;;;;25.80;23.08;;;;;;;0.96;85.17;94819.69;5098531;28;20124;-60
2022/12/11 10:48:27;;;;;;;29.65;26.30;;;;;;;1.13;83.49;94825.47;5105244;28;20027;-60
2022/12/11 10:51:11;;;;;;;38.22;34.10;;;;;;;1.17;81.05;94823.47;5105348;28;20023;-60
2022/12/11 10:53:39;;;;;;;20.67;18.42;;;;;;;1.39;83.00;94823.66;5095936;28;20032;-59
2022/12/11 10:56:05;;;;;;;19.05;17.35;;;;;;;1.52;81.19;94820.22;5103105;28;20521;-61
2022/12/11 10:58:33;;;;;;;23.83;21.35;;;;;;;1.54;80.10;94818.34;5107651;28;20038;-71
2022/12/11 11:01:06;;;;;;;19.63;17.73;;;;;;;1.67;78.85;94818.28;5104087;28;20381;-60
2022/12/11 11:03:34;;;;;;;18.88;16.98;;;;;;;1.63;77.71;94822.84;5104144;28;20031;-61
2022/12/11 11:06:04;;;;;;;18.33;16.55;;;;;;;1.74;77.52;94823.88;5109756;28;20083;-61
2022/12/11 11:08:38;;;;;;;17.77;15.98;;;;;;;1.71;76.65;94817.97;5102263;27;20012;-61
2022/12/11 11:11:04;;;;;;;16.70;15.20;;;;;;;1.73;75.45;94819.63;5109538;27;20112;-61
2022/12/11 11:13:30;;;;;;;16.05;14.65;;;;;;;2.12;76.77;94807.31;5098658;27;20027;-60
2022/12/11 11:16:12;;;;;;;16.00;14.60;;;;;;;2.22;74.88;94808.28;5108702;27;20162;-61
2022/12/11 11:18:39;;;;;;;17.33;15.73;;;;;;;2.56;75.53;94813.59;5102377;27;20469;-66
2022/12/11 11:21:05;;;;;;;16.95;15.10;;;;;;;2.55;73.05;94813.69;5115550;27;20025;-61
2022/12/11 11:23:33;;;;;;;16.17;14.68;;;;;;;2.66;74.06;94820.69;5111186;28;20047;-69
2022/12/11 11:26:00;;;;;;;16.00;14.50;;;;;;;3.21;72.70;94809.66;5112604;28;20505;-69
2022/12/11 11:28:39;;;;;;;15.02;13.73;;;;;;;3.43;70.49;94808.81;5113773;27;20035;-70
2022/12/11 11:31:13;;;;;;;15.90;14.40;;;;;;;3.52;69.20;94807.25;5116547;27;20023;-68
2022/12/11 11:33:53;;;;;;;14.75;13.45;;;;;;;3.49;66.36;94794.50;5109384;27;20031;-69
2022/12/11 11:36:22;;;;;;;15.13;13.73;;;;;;;3.64;68.02;94800.25;5100288;27;20561;-69
2022/12/11 11:39:09;;;;;;;13.98;12.77;;;;;;;3.33;64.20;94790.47;5116806;27;20051;-65
2022/12/11 11:41:51;;;;;;;15.07;13.70;;;;;;;3.37;66.13;94784.09;5109152;28;20031;-68
2022/12/11 11:44:30;;;;;;;14.15;12.75;;;;;;;3.17;64.37;94797.81;5094458;28;20032;-67
2022/12/11 11:47:06;;;;;;;13.98;12.77;;;;;;;3.26;65.56;94791.91;5098551;28;20092;-68